Time;durP1;ratioP1;P1;durP2;ratioP2;P2;SDS_P1;SDS_P2;PMS_P1;PMS_P2;Temp;Humidity;BMP_temperature;BMP_pressure;BME280_temperature;BME280_humidity;BME280_pressure;Samples;Min_cycle;Max_cycle;Signal;HPM_P1;HPM_P2
2021/09/29 00:01:28;;;;;;;29.83;22.27;;;16.90;99.90;;;;;;4997181;28;20363;-71
2021/09/29 00:03:54;;;;;;;30.10;21.30;;;16.90;99.90;;;;;;5014703;28;20114;-71
2021/09/29 00:06:20;;;;;;;29.15;20.95;;;16.90;99.90;;;;;;5014251;28;20034;-71
2021/09/29 00:08:46;;;;;;;29.98;21.15;;;16.90;99.90;;;;;;4996962;28;20033;-70
2021/09/29 00:11:12;;;;;;;31.38;22.52;;;16.90;99.90;;;;;;5014596;28;20479;-71
2021/09/29 00:13:38;;;;;;;30.83;22.67;;;16.90;99.90;;;;;;5014163;28;20128;-70
2021/09/29 00:16:04;;;;;;;28.23;21.40;;;16.90;99.90;;;;;;5014454;28;20062;-70
2021/09/29 00:18:30;;;;;;;31.92;24.23;;;16.90;99.90;;;;;;5014473;28;20049;-70
2021/09/29 00:20:55;;;;;;;36.63;25.42;;;16.90;99.90;;;;;;4996781;28;20461;-69
2021/09/29 00:23:21;;;;;;;33.78;25.50;;;16.90;99.90;;;;;;5014316;28;20398;-69
2021/09/29 00:25:47;;;;;;;33.83;25.05;;;16.90;99.90;;;;;;5014293;28;20462;-68
2021/09/29 00:28:13;;;;;;;33.67;24.15;;;16.90;99.90;;;;;;5014287;28;20041;-69
2021/09/29 00:33:25;;;;;;;35.65;23.40;;;16.80;99.90;;;;;;4983363;28;20169;-69
2021/09/29 00:35:51;;;;;;;30.50;22.48;;;16.80;99.90;;;;;;5014161;28;20478;-70
2021/09/29 00:38:17;;;;;;;32.58;22.88;;;16.80;99.90;;;;;;5014119;28;20026;-70
2021/09/29 00:40:42;;;;;;;31.98;24.25;;;16.80;99.90;;;;;;5014117;28;20678;-68
2021/09/29 00:43:08;;;;;;;32.90;24.48;;;16.70;99.90;;;;;;5014311;28;20490;-70
2021/09/29 00:45:34;;;;;;;35.75;24.05;;;16.70;99.90;;;;;;5014011;28;20026;-70
2021/09/29 00:48:00;;;;;;;31.38;23.83;;;16.70;99.90;;;;;;5013910;28;20037;-72
2021/09/29 00:50:27;;;;;;;38.78;23.73;;;16.70;99.90;;;;;;5013897;28;20102;-72
2021/09/29 00:52:55;;;;;;;34.13;24.30;;;16.70;99.90;;;;;;5013754;28;20026;-72
2021/09/29 00:55:21;;;;;;;33.85;23.52;;;16.70;99.90;;;;;;4996112;28;20065;-71
2021/09/29 00:57:46;;;;;;;33.90;23.98;;;16.70;99.90;;;;;;4996063;28;20050;-71
2021/09/29 01:00:13;;;;;;;30.27;23.35;;;16.70;99.90;;;;;;5013754;28;20034;-69
2021/09/29 01:02:39;;;;;;;32.67;24.35;;;16.70;99.90;;;;;;5013696;28;20026;-71
2021/09/29 01:05:06;;;;;;;35.38;25.30;;;16.70;99.90;;;;;;4996001;28;20121;-68
2021/09/29 01:07:59;;;;;;;33.63;23.52;;;16.50;99.90;;;;;;4995959;28;20460;-69
2021/09/29 01:10:41;;;;;;;34.55;24.10;;;16.60;99.90;;;;;;4995890;28;20112;-72
2021/09/29 01:13:10;;;;;;;;;;;16.60;99.90;;;;;;5013995;28;20057;-70
2021/09/29 01:15:48;;;;;;;32.80;22.60;;;16.60;99.90;;;;;;4995992;28;19919;-70
2021/09/29 01:18:19;;;;;;;33.20;22.02;;;16.60;99.90;;;;;;4995404;28;20030;-69
2021/09/29 01:20:50;;;;;;;30.30;23.17;;;16.70;99.90;;;;;;5013515;28;20033;-70
2021/09/29 01:23:37;;;;;;;31.50;21.65;;;16.80;99.90;;;;;;5013492;28;20048;-71
2021/09/29 01:26:06;;;;;;;35.47;21.98;;;16.80;99.90;;;;;;5013683;28;20507;-70
2021/09/29 01:28:48;;;;;;;34.42;22.27;;;16.90;99.90;;;;;;4995700;28;20593;-69
2021/09/29 01:31:14;;;;;;;;;;;16.90;99.90;;;;;;5010219;28;20133;-70
2021/09/29 01:33:42;;;;;;;47.78;25.42;;;17.00;99.90;;;;;;4993674;28;19910;-72
2021/09/29 01:36:08;;;;;;;40.78;24.77;;;17.00;99.90;;;;;;4993668;28;20161;-69
2021/09/29 01:38:38;;;;;;;40.45;26.83;;;17.00;99.90;;;;;;4993695;28;20026;-69
2021/09/29 01:41:05;;;;;;;42.38;26.30;;;17.00;99.90;;;;;;4976253;28;20027;-69
2021/09/29 01:43:31;;;;;;;34.00;24.27;;;17.00;99.90;;;;;;4976107;28;20378;-71
2021/09/29 01:45:57;;;;;;;36.78;25.17;;;17.10;99.90;;;;;;4993645;28;20027;-71
2021/09/29 01:48:23;;;;;;;35.13;22.77;;;17.10;99.90;;;;;;4976048;28;20034;-71
2021/09/29 01:50:53;;;;;;;31.30;22.33;;;17.10;99.90;;;;;;4993623;28;20029;-68
2021/09/29 01:53:20;;;;;;;32.22;21.70;;;17.10;99.90;;;;;;4993506;28;20030;-70
2021/09/29 01:55:46;;;;;;;34.53;22.02;;;17.20;99.90;;;;;;4976040;28;20126;-70
2021/09/29 01:58:13;;;;;;;30.98;22.92;;;;;;;;;;4975997;28;20117;-69
2021/09/29 02:00:40;;;;;;;29.65;21.95;;;;;;;;;;4993212;28;20450;-69
2021/09/29 02:03:06;;;;;;;37.63;22.05;;;;;;;;;;4993443;28;20105;-70
2021/09/29 02:05:33;;;;;;;31.40;21.60;;;;;;;;;;4993121;28;20038;-70
2021/09/29 02:08:00;;;;;;;29.08;22.02;;;;;;;;;;4993458;28;20026;-70
2021/09/29 02:10:27;;;;;;;31.13;22.33;;;17.20;99.90;;;;;;4975621;28;20105;-70
2021/09/29 02:12:53;;;;;;;31.60;22.73;;;17.20;99.90;;;;;;4992869;28;20038;-71
2021/09/29 02:15:21;;;;;;;29.27;21.83;;;17.10;99.90;;;;;;4993323;28;20027;-70
2021/09/29 02:17:47;;;;;;;31.10;22.10;;;17.10;99.90;;;;;;4993316;28;20411;-71
2021/09/29 02:20:13;;;;;;;30.80;21.42;;;17.10;99.90;;;;;;4975786;28;20057;-71
2021/09/29 02:22:40;;;;;;;51.97;26.52;;;17.00;99.90;;;;;;4993308;28;20030;-69
2021/09/29 02:25:10;;;;;;;33.70;21.48;;;17.00;99.90;;;;;;4993515;28;20054;-70
2021/09/29 02:27:37;;;;;;;31.60;22.77;;;16.90;99.90;;;;;;4993752;28;20057;-71
2021/09/29 02:30:05;;;;;;;28.65;22.27;;;16.90;99.90;;;;;;4979066;28;20118;-70
2021/09/29 02:32:32;;;;;;;32.28;21.10;;;16.90;99.90;;;;;;4992648;28;20505;-70
2021/09/29 02:34:58;;;;;;;29.95;21.73;;;16.80;99.90;;;;;;5016393;28;20030;-70
2021/09/29 02:37:24;;;;;;;31.75;21.33;;;16.80;99.90;;;;;;4998662;28;20033;-69
2021/09/29 02:39:50;;;;;;;29.05;21.23;;;16.80;99.90;;;;;;4998845;28;20394;-70
2021/09/29 02:42:16;;;;;;;31.95;22.33;;;16.80;99.90;;;;;;5016042;28;20034;-70
2021/09/29 02:44:41;;;;;;;28.35;22.00;;;16.80;99.90;;;;;;5016186;28;20041;-69
2021/09/29 02:47:07;;;;;;;35.03;22.83;;;16.70;99.90;;;;;;5016156;28;20034;-70
2021/09/29 02:49:33;;;;;;;32.35;22.77;;;16.70;99.90;;;;;;5016171;28;20061;-70
2021/09/29 02:51:59;;;;;;;33.45;23.73;;;16.70;99.90;;;;;;4998431;28;20030;-71
2021/09/29 02:54:25;;;;;;;33.80;25.33;;;16.70;99.90;;;;;;4998323;28;20029;-70
2021/09/29 02:56:51;;;;;;;40.95;28.35;;;16.70;99.90;;;;;;5016258;28;20049;-68
2021/09/29 02:59:17;;;;;;;40.65;27.67;;;16.70;99.90;;;;;;4998336;28;20445;-69
2021/09/29 03:01:43;;;;;;;37.65;27.85;;;16.70;99.90;;;;;;4998295;28;20033;-71
2021/09/29 03:04:09;;;;;;;40.60;27.27;;;16.70;99.90;;;;;;5015878;28;20030;-69
2021/09/29 03:06:35;;;;;;;40.70;28.83;;;16.70;99.90;;;;;;5015845;28;20454;-70
2021/09/29 03:09:01;;;;;;;47.88;32.95;;;16.60;99.90;;;;;;4998081;28;20029;-76
2021/09/29 03:11:27;;;;;;;55.35;36.15;;;16.60;99.90;;;;;;5015758;28;20026;-70
2021/09/29 03:13:53;;;;;;;52.58;35.13;;;16.60;99.90;;;;;;5015259;28;20064;-70
2021/09/29 03:16:19;;;;;;;51.92;36.70;;;16.60;99.90;;;;;;5015683;28;20037;-72
2021/09/29 03:18:48;;;;;;;47.70;33.60;;;16.60;99.90;;;;;;5015585;28;20471;-70
2021/09/29 03:21:14;;;;;;;45.78;30.50;;;16.50;99.90;;;;;;4997984;28;20137;-70
2021/09/29 03:23:40;;;;;;;43.15;30.88;;;16.60;99.90;;;;;;5015438;28;20454;-70
2021/09/29 03:26:06;;;;;;;40.70;28.13;;;16.50;99.90;;;;;;4997821;28;20029;-70
2021/09/29 03:28:32;;;;;;;38.50;26.73;;;16.50;99.90;;;;;;4997752;28;20037;-72
2021/09/29 03:30:57;;;;;;;37.95;27.58;;;16.60;99.90;;;;;;5013944;28;20037;-70
2021/09/29 03:33:23;;;;;;;38.88;27.65;;;16.60;99.90;;;;;;4995672;28;20037;-71
2021/09/29 03:35:50;;;;;;;36.30;25.90;;;16.70;99.90;;;;;;5010667;28;20034;-70
2021/09/29 03:38:16;;;;;;;33.10;23.75;;;16.70;99.90;;;;;;4995668;28;20035;-71
2021/09/29 03:40:42;;;;;;;34.72;23.88;;;16.80;99.90;;;;;;4994976;28;20505;-71
2021/09/29 03:43:08;;;;;;;27.58;21.65;;;16.80;99.90;;;;;;4995876;28;20035;-71
2021/09/29 03:45:34;;;;;;;27.50;20.75;;;16.90;99.90;;;;;;5010580;28;20030;-71
2021/09/29 03:47:59;;;;;;;28.08;20.63;;;16.90;99.90;;;;;;4995440;28;20022;-70
2021/09/29 03:50:25;;;;;;;27.55;21.17;;;17.00;99.90;;;;;;4995434;28;20463;-70
2021/09/29 03:52:51;;;;;;;28.33;21.05;;;17.00;99.90;;;;;;4995374;28;20493;-70
2021/09/29 03:55:17;;;;;;;29.88;20.83;;;17.10;99.90;;;;;;4995054;28;20049;-69
2021/09/29 03:57:43;;;;;;;30.77;21.52;;;17.10;99.90;;;;;;4995514;28;20034;-69
2021/09/29 04:00:12;;;;;;;30.63;20.67;;;17.10;99.90;;;;;;4977717;28;20050;-70
2021/09/29 04:02:39;;;;;;;29.30;21.63;;;17.10;99.90;;;;;;4995234;28;20027;-71
2021/09/29 04:05:06;;;;;;;30.10;21.15;;;17.20;99.90;;;;;;4977571;28;20026;-71
2021/09/29 04:07:32;;;;;;;31.02;21.13;;;17.20;99.90;;;;;;4995346;28;20033;-68
2021/09/29 04:09:58;;;;;;;38.08;24.23;;;17.20;99.90;;;;;;4994776;28;20026;-72
2021/09/29 04:12:24;;;;;;;39.05;24.00;;;17.20;99.90;;;;;;4995223;28;20078;-69
2021/09/29 04:14:51;;;;;;;36.95;23.25;;;17.20;99.90;;;;;;4977425;28;20050;-72
2021/09/29 04:17:17;;;;;;;32.60;22.15;;;17.20;99.90;;;;;;4977393;28;20027;-70
2021/09/29 04:19:44;;;;;;;34.15;22.50;;;17.30;99.90;;;;;;4995080;28;20375;-69
2021/09/29 04:22:10;;;;;;;31.13;21.67;;;17.30;99.90;;;;;;4977344;28;20038;-69
2021/09/29 04:24:37;;;;;;;33.45;22.90;;;17.30;99.90;;;;;;5009788;28;20033;-70
2021/09/29 04:27:04;;;;;;;30.67;24.08;;;17.30;99.90;;;;;;4994709;28;20088;-71
2021/09/29 04:29:30;;;;;;;35.80;22.88;;;17.30;99.90;;;;;;4977107;28;20042;-69
2021/09/29 04:31:56;;;;;;;34.17;23.70;;;17.30;99.90;;;;;;4994223;28;20050;-69
2021/09/29 04:34:22;;;;;;;33.53;23.02;;;17.30;99.90;;;;;;4994580;28;20038;-71
2021/09/29 04:36:48;;;;;;;39.42;23.48;;;17.40;99.90;;;;;;4994242;28;20027;-69
2021/09/29 04:39:15;;;;;;;30.38;22.13;;;17.40;99.90;;;;;;4994541;28;20485;-70
2021/09/29 04:41:41;;;;;;;38.38;24.05;;;17.40;99.90;;;;;;4994452;28;20467;-71
2021/09/29 04:44:07;;;;;;;36.17;24.90;;;17.40;99.90;;;;;;4976879;28;20121;-70
2021/09/29 04:46:34;;;;;;;33.45;23.58;;;17.40;99.90;;;;;;4976910;28;20057;-67
2021/09/29 04:48:59;;;;;;;34.72;23.77;;;17.50;99.90;;;;;;4976823;28;20378;-71
2021/09/29 04:51:26;;;;;;;41.63;24.90;;;17.60;99.90;;;;;;4994254;28;20081;-72
2021/09/29 04:53:52;;;;;;;36.92;23.48;;;17.60;99.90;;;;;;4994262;28;20065;-69
2021/09/29 04:56:17;;;;;;;37.05;24.70;;;17.60;99.90;;;;;;4994209;28;20034;-69
2021/09/29 04:58:44;;;;;;;35.78;24.83;;;17.50;99.90;;;;;;4994186;28;20053;-70
2021/09/29 05:01:12;;;;;;;41.45;24.88;;;17.50;99.90;;;;;;4976615;28;20069;-71
2021/09/29 05:03:38;;;;;;;43.95;26.92;;;17.50;99.90;;;;;;4976428;28;20039;-69
2021/09/29 05:06:03;;;;;;;41.97;26.90;;;17.50;99.90;;;;;;4994025;28;20056;-70
2021/09/29 05:08:33;;;;;;;44.03;26.40;;;17.60;99.90;;;;;;4993974;28;20418;-71
2021/09/29 05:11:03;;;;;;;41.63;25.48;;;17.70;99.90;;;;;;4993954;28;20035;-69
2021/09/29 05:13:31;;;;;;;44.50;27.35;;;17.80;99.90;;;;;;4976421;28;20045;-70
2021/09/29 05:16:02;;;;;;;37.17;25.58;;;17.70;99.90;;;;;;4993911;28;20459;-69
2021/09/29 05:18:28;;;;;;;39.27;25.90;;;17.80;99.90;;;;;;4993650;28;20360;-69
2021/09/29 05:20:55;;;;;;;36.17;25.23;;;17.80;99.90;;;;;;4976222;28;20034;-71
2021/09/29 05:23:21;;;;;;;32.38;24.20;;;17.80;99.90;;;;;;4976348;28;20524;-70
2021/09/29 05:25:47;;;;;;;39.88;26.52;;;17.90;99.90;;;;;;4993732;28;20026;-69
2021/09/29 05:28:16;;;;;;;51.97;30.45;;;17.90;99.90;;;;;;4993565;28;20462;-72
2021/09/29 05:30:43;;;;;;;38.92;26.25;;;17.90;99.90;;;;;;4991040;28;20047;-69
2021/09/29 05:33:09;;;;;;;38.05;27.42;;;17.90;99.90;;;;;;4993610;28;20129;-71
2021/09/29 05:35:34;;;;;;;35.63;25.70;;;17.90;99.90;;;;;;4990773;28;20688;-71
2021/09/29 05:38:00;;;;;;;36.45;25.08;;;17.90;99.90;;;;;;4975657;28;20026;-72
2021/09/29 05:40:26;;;;;;;34.50;24.08;;;17.90;99.90;;;;;;4993078;28;20102;-70
2021/09/29 05:42:52;;;;;;;32.33;21.95;;;18.00;99.90;;;;;;4993686;28;20026;-71
2021/09/29 05:45:18;;;;;;;33.42;22.23;;;18.00;99.90;;;;;;4975683;28;20022;-71
2021/09/29 05:47:44;;;;;;;31.27;23.05;;;18.00;99.90;;;;;;4993093;28;20029;-71
2021/09/29 05:50:11;;;;;;;28.05;21.45;;;18.10;99.90;;;;;;4993240;28;20105;-70
2021/09/29 05:52:37;;;;;;;30.20;21.88;;;18.00;99.90;;;;;;4993136;28;20030;-73
2021/09/29 05:55:04;;;;;;;31.83;22.38;;;18.00;99.90;;;;;;4975464;28;20084;-70
2021/09/29 05:57:30;;;;;;;29.42;19.77;;;18.10;99.90;;;;;;4993184;28;20030;-73
2021/09/29 05:59:56;;;;;;;34.85;22.75;;;18.10;99.90;;;;;;4993021;28;20027;-68
2021/09/29 06:02:22;;;;;;;28.33;21.05;;;18.10;99.90;;;;;;4975651;28;20034;-69
2021/09/29 06:04:48;;;;;;;27.70;21.15;;;18.10;99.90;;;;;;4996542;28;20031;-68
2021/09/29 06:07:15;;;;;;;27.48;19.85;;;18.20;99.90;;;;;;4996698;28;20459;-70
2021/09/29 06:09:41;;;;;;;32.42;20.20;;;18.20;99.90;;;;;;4996682;28;20067;-73
2021/09/29 06:12:08;;;;;;;25.70;19.48;;;18.20;99.90;;;;;;4996528;28;20033;-69
2021/09/29 06:14:35;;;;;;;28.13;19.75;;;18.10;99.90;;;;;;4997026;28;20037;-70
2021/09/29 06:17:12;;;;;;;30.63;17.98;;;18.10;99.90;;;;;;4996821;28;20058;-71
2021/09/29 06:19:39;;;;;;;26.73;19.67;;;18.10;99.90;;;;;;4996672;28;20481;-70
2021/09/29 06:22:07;;;;;;;25.98;18.17;;;18.20;99.90;;;;;;4979223;28;20125;-72
2021/09/29 06:24:32;;;;;;;21.10;17.50;;;18.20;99.90;;;;;;4979376;28;20029;-72
2021/09/29 06:26:58;;;;;;;23.30;18.05;;;18.20;99.90;;;;;;4996496;28;20030;-67
2021/09/29 06:29:24;;;;;;;21.40;17.48;;;18.20;99.90;;;;;;4996648;28;20026;-71
2021/09/29 06:31:55;;;;;;;25.30;18.95;;;18.30;99.90;;;;;;5006786;28;20441;-72
2021/09/29 06:34:21;;;;;;;26.80;18.50;;;18.20;99.90;;;;;;5016207;28;20128;-70
2021/09/29 06:36:47;;;;;;;22.33;17.83;;;18.20;99.90;;;;;;5007296;28;20033;-67
2021/09/29 06:39:13;;;;;;;22.52;17.27;;;18.30;99.90;;;;;;4997359;28;20035;-63
2021/09/29 06:41:41;;;;;;;26.98;18.75;;;18.30;99.90;;;;;;4996204;28;20101;-69
2021/09/29 06:44:08;;;;;;;28.27;19.60;;;18.40;99.90;;;;;;4996049;28;20538;-69
2021/09/29 06:46:34;;;;;;;27.48;20.48;;;18.30;99.90;;;;;;4996044;28;20125;-76
2021/09/29 06:49:00;;;;;;;25.35;19.10;;;18.40;99.90;;;;;;4995151;28;20034;-74
2021/09/29 06:51:26;;;;;;;26.88;20.25;;;18.40;99.90;;;;;;4996284;28;20074;-68
2021/09/29 06:53:52;;;;;;;29.20;20.25;;;18.40;99.90;;;;;;4995003;28;20034;-72
2021/09/29 06:56:19;;;;;;;30.50;21.42;;;18.40;99.90;;;;;;4996283;28;20057;-70
2021/09/29 06:58:46;;;;;;;29.05;20.25;;;18.50;99.90;;;;;;4996248;28;20022;-72
2021/09/29 07:01:12;;;;;;;26.02;19.20;;;18.50;99.90;;;;;;4996206;28;20469;-72
2021/09/29 07:03:37;;;;;;;29.60;20.80;;;18.60;99.90;;;;;;4996487;28;20491;-71
2021/09/29 07:06:04;;;;;;;23.42;18.83;;;18.60;99.90;;;;;;4996132;28;20089;-72
2021/09/29 07:08:30;;;;;;;24.30;18.92;;;18.70;99.90;;;;;;4996132;28;20082;-71
2021/09/29 07:10:56;;;;;;;24.45;18.55;;;18.80;99.90;;;;;;4995695;28;20577;-74
2021/09/29 07:13:22;;;;;;;24.33;19.60;;;18.90;99.90;;;;;;4996027;28;20026;-73
2021/09/29 07:15:48;;;;;;;22.98;18.40;;;18.20;99.90;;;;;;4994584;28;20509;-73
2021/09/29 07:18:16;;;;;;;25.58;19.15;;;19.00;99.90;;;;;;4995990;28;20110;-71
2021/09/29 07:20:42;;;;;;;29.33;18.60;;;19.10;99.90;;;;;;4995938;28;20030;-70
2021/09/29 07:23:09;;;;;;;26.80;19.63;;;19.20;99.90;;;;;;4995923;28;20037;-71
2021/09/29 07:25:37;;;;;;;25.33;20.65;;;19.30;99.90;;;;;;4995858;28;20109;-70
2021/09/29 07:28:06;;;;;;;28.00;19.88;;;19.50;99.90;;;;;;4995803;28;20058;-72
2021/09/29 07:30:33;;;;;;;27.70;20.52;;;;;;;;;;4995670;28;20076;-70
2021/09/29 07:33:03;;;;;;;26.58;20.73;;;19.90;99.90;;;;;;4997173;28;20033;-69
2021/09/29 07:35:30;;;;;;;23.13;19.15;;;20.10;99.90;;;;;;5015103;28;20052;-68
2021/09/29 07:37:56;;;;;;;27.42;20.50;;;20.20;99.90;;;;;;5014785;28;20379;-69
2021/09/29 07:40:22;;;;;;;26.85;20.90;;;20.30;99.90;;;;;;5014798;28;20033;-69
2021/09/29 07:42:48;;;;;;;31.77;23.73;;;20.30;99.90;;;;;;4997320;28;20124;-72
2021/09/29 07:45:14;;;;;;;27.85;22.17;;;20.30;99.90;;;;;;5010702;28;20466;-72
2021/09/29 07:47:40;;;;;;;30.40;23.77;;;20.20;99.90;;;;;;5003781;28;20023;-70
2021/09/29 07:50:07;;;;;;;31.38;23.60;;;20.20;99.90;;;;;;4995196;28;20029;-71
2021/09/29 07:52:34;;;;;;;31.30;23.88;;;20.30;99.90;;;;;;5014098;28;20065;-72
2021/09/29 07:55:00;;;;;;;35.60;25.00;;;20.30;99.90;;;;;;4996619;28;20030;-70
2021/09/29 07:57:26;;;;;;;29.42;23.63;;;20.50;99.90;;;;;;5013788;28;20482;-71
2021/09/29 07:59:52;;;;;;;29.15;22.90;;;20.50;99.90;;;;;;5013788;28;20061;-67
2021/09/29 08:02:18;;;;;;;31.17;23.73;;;20.70;99.90;;;;;;5004214;28;20367;-69
2021/09/29 08:04:44;;;;;;;28.20;23.55;;;20.80;99.90;;;;;;4973708;28;20030;-71
2021/09/29 08:07:10;;;;;;;35.58;25.70;;;20.90;99.90;;;;;;4975062;28;20035;-70
2021/09/29 08:09:35;;;;;;;32.88;22.77;;;21.00;99.90;;;;;;4973692;28;20022;-71
2021/09/29 08:12:02;;;;;;;29.77;24.55;;;21.10;99.90;;;;;;4974973;28;20107;-73
2021/09/29 08:14:27;;;;;;;32.67;24.42;;;21.10;99.90;;;;;;4993130;28;20022;-73
2021/09/29 08:16:53;;;;;;;29.75;24.25;;;21.20;99.90;;;;;;5013749;28;20399;-69
2021/09/29 08:19:19;;;;;;;31.65;23.80;;;21.30;99.90;;;;;;4996220;28;20026;-72
2021/09/29 08:21:47;;;;;;;35.33;27.83;;;21.40;99.90;;;;;;4996390;28;20026;-68
2021/09/29 08:24:28;;;;;;;38.55;29.45;;;21.30;99.90;;;;;;5014179;28;20032;-66
2021/09/29 08:27:05;;;;;;;39.70;29.40;;;21.30;99.90;;;;;;5013622;28;20029;-69
2021/09/29 08:34:55;;;;;;;42.15;28.45;;;21.50;99.90;;;;;;5013846;28;20034;-67
2021/09/29 08:37:35;;;;;;;42.15;30.02;;;21.50;99.90;;;;;;5013612;28;20026;-69
2021/09/29 08:45:25;;;;;;;36.95;29.67;;;21.90;99.90;;;;;;5003971;28;20084;-71
2021/09/29 08:48:23;;;;;;;36.38;30.25;;;22.40;99.90;;;;;;4993533;28;20155;-71
2021/09/29 09:17:43;;;;;;;30.85;24.45;;;22.80;99.90;;;;;;4993228;28;20379;-66
2021/09/29 09:20:19;;;;;;;31.98;25.02;;;22.80;99.90;;;;;;4993168;28;20034;-68
2021/09/29 09:22:50;;;;;;;30.38;24.85;;;22.90;99.90;;;;;;4976222;28;20379;-69
2021/09/29 09:25:16;;;;;;;32.70;25.65;;;23.10;99.90;;;;;;4993782;28;20026;-68
2021/09/29 09:27:45;;;;;;;30.60;25.10;;;23.00;99.90;;;;;;4993421;28;20044;-69
2021/09/29 09:30:25;;;;;;;33.97;25.95;;;23.30;99.90;;;;;;4975791;28;20530;-69
2021/09/29 09:32:55;;;;;;;32.40;24.85;;;23.70;99.90;;;;;;5011948;28;20073;-69
2021/09/29 09:35:22;;;;;;;36.72;24.23;;;23.80;99.90;;;;;;5012993;28;20025;-71
2021/09/29 09:37:59;;;;;;;31.75;23.33;;;24.00;99.90;;;;;;5012134;28;20028;-68
2021/09/29 09:40:29;;;;;;;32.28;23.17;;;;;;;;;;5013201;28;20113;-70
2021/09/29 09:42:57;;;;;;;28.00;22.60;;;24.10;99.90;;;;;;5013146;28;20080;-70
2021/09/29 09:45:33;;;;;;;31.70;23.33;;;24.40;99.30;;;;;;4983990;28;20069;-69
2021/09/29 09:47:59;;;;;;;29.92;21.83;;;24.40;99.60;;;;;;4993196;28;20031;-68
2021/09/29 09:50:28;;;;;;;29.70;21.92;;;24.40;99.50;;;;;;4992993;28;20029;-70
2021/09/29 09:52:55;;;;;;;24.92;21.02;;;24.60;99.10;;;;;;4992384;28;20026;-70
2021/09/29 09:55:23;;;;;;;24.48;19.67;;;24.70;97.90;;;;;;4992026;28;20031;-69
2021/09/29 09:57:58;;;;;;;22.45;18.20;;;24.90;98.00;;;;;;4974471;28;20033;-70
2021/09/29 10:00:26;;;;;;;23.90;18.20;;;25.20;96.90;;;;;;4975414;28;20033;-69
2021/09/29 10:02:55;;;;;;;21.98;17.88;;;25.20;95.50;;;;;;4993532;28;20486;-70
2021/09/29 10:05:23;;;;;;;28.20;18.38;;;25.50;95.40;;;;;;4993373;28;20088;-69
2021/09/29 10:07:50;;;;;;;23.52;18.73;;;25.50;94.60;;;;;;4981482;28;20088;-70
2021/09/29 10:27:13;;;;;;;21.20;17.33;;;25.20;93.50;;;;;;4972629;28;20124;-68
2021/09/29 10:29:43;;;;;;;23.63;17.52;;;25.40;93.00;;;;;;4973332;28;20038;-68
2021/09/29 10:32:15;;;;;;;18.77;15.52;;;25.20;92.70;;;;;;4971588;28;20395;-67
2021/09/29 10:35:28;;;;;;;18.50;15.45;;;26.00;92.50;;;;;;4973432;28;20027;-70
2021/09/29 10:40:41;;;;;;;21.23;15.05;;;27.50;90.00;;;;;;4973520;28;20039;-69
2021/09/29 10:43:27;;;;;;;25.02;15.13;;;27.90;87.20;;;;;;4973429;28;20031;-71
2021/09/29 11:29:49;;;;;;;21.83;10.38;;;;;;;;;;5014855;28;20434;-70
2021/09/29 11:35:31;;;;;;;10.32;9.18;;;31.00;65.80;;;;;;4997448;28;20038;-71
2021/09/29 11:49:42;;;;;;;12.60;9.85;;;29.80;69.20;;;;;;5014807;28;20053;-71
2021/09/29 12:11:06;;;;;;;17.15;9.40;;;34.40;58.00;;;;;;5014122;28;20112;-72
2021/09/29 12:13:50;;;;;;;10.68;9.07;;;34.90;57.20;;;;;;4996418;28;20022;-72
2021/09/29 12:16:29;;;;;;;12.65;9.38;;;35.30;56.70;;;;;;4996440;28;20501;-69
2021/09/29 12:19:08;;;;;;;14.80;9.88;;;35.70;56.40;;;;;;5013937;28;20029;-73
2021/09/29 12:21:41;;;;;;;14.95;9.88;;;35.70;55.90;;;;;;5014113;28;20121;-70
2021/09/29 12:24:09;;;;;;;12.32;9.27;;;35.80;55.20;;;;;;5013480;28;20454;-69
2021/09/29 12:26:50;;;;;;;10.70;8.70;;;35.90;55.00;;;;;;4996122;28;20026;-73
2021/09/29 12:30:05;;;;;;;10.82;9.00;;;35.90;55.10;;;;;;5013758;28;20486;-71
2021/09/29 12:38:01;;;;;;;9.70;8.65;;;35.70;54.30;;;;;;5014115;28;20026;-70
2021/09/29 12:40:30;;;;;;;14.75;8.75;;;35.90;54.10;;;;;;5013221;28;20042;-71
2021/09/29 12:43:14;;;;;;;12.45;8.52;;;36.00;54.60;;;;;;5013602;28;20037;-70
2021/09/29 12:45:43;;;;;;;9.60;8.68;;;36.30;54.00;;;;;;5013413;28;20030;-73
2021/09/29 12:48:11;;;;;;;12.07;8.90;;;36.10;53.70;;;;;;5013348;28;20030;-70
2021/09/29 12:50:52;;;;;;;12.07;8.75;;;35.80;53.30;;;;;;4996053;28;20029;-70
2021/09/29 12:56:20;;;;;;;13.93;8.77;;;35.80;53.90;;;;;;4952885;29;19915;-71
2021/09/29 12:58:46;;;;;;;15.23;8.88;;;35.60;54.10;;;;;;4936653;29;20162;-71
2021/09/29 13:01:14;;;;;;;12.10;7.85;;;35.50;54.10;;;;;;4953221;29;20118;-70
2021/09/29 13:03:40;;;;;;;9.75;8.85;;;34.50;55.00;;;;;;4952739;29;20043;-71
2021/09/29 13:06:06;;;;;;;11.35;8.93;;;33.70;55.70;;;;;;4952330;29;20032;-72
2021/09/29 13:08:32;;;;;;;14.48;8.65;;;32.90;57.60;;;;;;4952509;29;20042;-72
2021/09/29 13:10:59;;;;;;;13.15;9.77;;;31.80;59.80;;;;;;4936500;29;20079;-72
2021/09/29 13:13:26;;;;;;;11.80;9.23;;;30.20;62.10;;;;;;4951851;28;20050;-73
2021/09/29 13:15:54;;;;;;;11.77;10.52;;;29.70;63.10;;;;;;4936699;29;20442;-70
2021/09/29 13:20:57;;;;;;;11.82;9.23;;;28.40;66.20;;;;;;4952624;29;20038;-70
2021/09/29 13:36:37;;;;;;;13.90;10.43;;;27.40;69.00;;;;;;5013065;28;20056;-72
2021/09/29 13:39:14;;;;;;;16.73;9.63;;;27.30;69.70;;;;;;5013393;28;20520;-72
2021/09/29 13:41:42;;;;;;;14.82;9.05;;;27.00;69.40;;;;;;4995641;28;20048;-72
2021/09/29 13:44:09;;;;;;;15.15;9.88;;;26.80;70.30;;;;;;5013154;28;20455;-73
2021/09/29 13:46:35;;;;;;;13.50;9.60;;;26.80;71.20;;;;;;5013491;28;20022;-70
2021/09/29 13:49:03;;;;;;;12.00;9.23;;;26.60;72.00;;;;;;5013464;28;20057;-71
2021/09/29 13:51:30;;;;;;;14.25;9.65;;;26.50;71.70;;;;;;5013164;28;20033;-71
2021/09/29 13:53:57;;;;;;;9.77;8.52;;;26.40;72.70;;;;;;5013098;28;20022;-73
2021/09/29 13:56:32;;;;;;;14.00;9.60;;;26.20;72.90;;;;;;5013131;28;20041;-72
2021/09/29 13:59:16;;;;;;;10.73;9.60;;;26.00;73.40;;;;;;5013138;28;20041;-73
2021/09/29 14:31:10;;;;;;;11.15;7.82;;;24.70;77.10;;;;;;5015798;28;20145;-71
2021/09/29 14:33:43;;;;;;;7.63;6.85;;;24.60;77.10;;;;;;5015124;28;20033;-72
2021/09/29 14:36:09;;;;;;;10.05;7.25;;;24.60;77.40;;;;;;5014674;28;20026;-73
2021/09/29 14:38:35;;;;;;;9.77;6.68;;;24.50;77.70;;;;;;4998649;28;20048;-71
2021/09/29 14:41:01;;;;;;;8.75;6.43;;;24.40;77.00;;;;;;5016454;28;20100;-71
2021/09/29 14:43:27;;;;;;;10.82;7.05;;;24.40;77.20;;;;;;5016170;28;20468;-70
2021/09/29 14:45:53;;;;;;;9.55;6.38;;;24.30;77.90;;;;;;5015752;28;20026;-71
2021/09/29 14:48:18;;;;;;;8.25;6.40;;;24.30;77.30;;;;;;5016249;28;20471;-69
2021/09/29 14:50:49;;;;;;;9.23;6.10;;;24.20;77.30;;;;;;4998453;28;20076;-70
2021/09/29 14:53:15;;;;;;;6.70;6.00;;;24.00;77.80;;;;;;4998392;28;20066;-70
2021/09/29 14:55:41;;;;;;;10.32;7.13;;;23.90;77.70;;;;;;5016055;28;20057;-69
2021/09/29 14:58:08;;;;;;;10.98;6.60;;;23.90;78.30;;;;;;4998394;28;20471;-72
2021/09/29 15:00:34;;;;;;;8.35;5.50;;;23.70;78.30;;;;;;5016003;28;20030;-71
2021/09/29 15:03:00;;;;;;;8.23;4.93;;;23.60;78.50;;;;;;5015954;28;20034;-69
2021/09/29 15:05:28;;;;;;;7.65;5.47;;;23.50;78.90;;;;;;5015726;28;20532;-70
2021/09/29 15:07:54;;;;;;;6.10;5.05;;;23.40;79.10;;;;;;4998294;28;20058;-71
2021/09/29 15:10:20;;;;;;;7.28;4.85;;;23.30;79.10;;;;;;5015829;28;20048;-70
2021/09/29 15:12:46;;;;;;;8.13;5.22;;;23.10;79.40;;;;;;5015699;28;20030;-73
2021/09/29 15:18:27;;;;;;;7.35;4.30;;;22.90;79.30;;;;;;5015606;28;20136;-73
2021/09/29 15:23:36;;;;;;;5.30;4.80;;;22.80;80.10;;;;;;5015565;28;20038;-72
2021/09/29 15:29:26;;;;;;;8.45;3.72;;;22.60;81.20;;;;;;5013330;28;20054;-71
2021/09/29 15:48:48;;;;;;;6.88;3.33;;;22.00;82.50;;;;;;5015107;28;20434;-69
2021/09/29 16:01:37;;;;;;;4.68;2.53;;;21.40;84.60;;;;;;5014789;28;20055;-71
2021/09/29 16:12:23;;;;;;;7.32;1.95;;;21.10;83.50;;;;;;5013753;28;20079;-67
2021/09/29 16:17:35;;;;;;;5.20;1.80;;;20.80;84.10;;;;;;5014220;28;20453;-70
2021/09/29 16:23:09;;;;;;;1.67;1.58;;;20.60;84.10;;;;;;5013758;28;20041;-69
2021/09/29 16:31:41;;;;;;;2.45;1.60;;;20.30;84.30;;;;;;4994159;28;20114;-70
2021/09/29 16:36:42;;;;;;;6.72;1.60;;;20.10;85.80;;;;;;4994142;28;20173;-69
2021/09/29 16:39:09;;;;;;;2.28;2.00;;;20.00;85.20;;;;;;4993810;28;20058;-66
2021/09/29 16:41:35;;;;;;;3.50;2.08;;;19.90;85.90;;;;;;4993518;28;20494;-66
2021/09/29 16:44:01;;;;;;;2.72;1.80;;;19.90;86.00;;;;;;4994091;28;20034;-69
2021/09/29 16:46:31;;;;;;;3.70;1.92;;;19.80;86.40;;;;;;4994102;28;20031;-68
2021/09/29 16:48:57;;;;;;;3.77;1.80;;;19.80;86.40;;;;;;4994250;28;20038;-69